Airfield :
LOGIN :

Register | Disclaimer

   EN    FR    IT 

 










Legend :    VFR   Marginal VFR   IFR   Intensive IFR   Very Intensive IFR
Visi :
Ceiling :
>= 8 km
>= 3000ft
5 to 8 km
1000 to 3000 ft
1500m to 5 km
500 to 1000 ft
800 to 1500m
200 to 500 ft
< 800m
< 200 ft
Symbols :   Thunderstorms  Fog  Heavy snow  Heavy precipitations  Wind > 20 kt
SIGMETs :     Misc.  Thunderstorms  Icing  Turbulence  Mountain Waves  Volcanic Ashes






- Airport Elevation : 870 ft
- IATA code : ETZ


LFJL - Metz Nancy Lorraine

CURRENT METAR :
  • 270800Z AUTO 16014KT 9999 FEW016 SCT047 BKN064 02/01 Q1004 TEMPO 3000 SNRA BKN005

EXPIRED METARs :
  • 270730Z AUTO 16013KT 8000 -RA FEW014 SCT024 BKN029 01/00 Q1005 TEMPO 3000 SNRA BKN005
  • 270700Z AUTO 16015KT 9999 FEW024 SCT042 BKN054 01/00 Q1005 NOSIG
  • 270630Z AUTO 16013KT 9999 SCT041 OVC049 01/00 Q1006 NOSIG
  • 270600Z AUTO 16011KT CAVOK 01/00 Q1007 NOSIG
  • 270530Z AUTO 16010KT CAVOK 01/00 Q1007 NOSIG
  • 270500Z AUTO 17009KT CAVOK 01/00 Q1008 TEMPO BKN010

TAF TAF LFJL
Valid from the 27 at 06:00 until the 28 at 06:00 UTC


270500Z 2706/2806 20010KT 9999 FEW010 BKN025
BECMG 2708/2709 -RASN
TEMPO 2709/2714 3000 SNRA BKN005
PROB40
TEMPO 2710/2714 1000 SN OVC002
FM271400 21015G30KT 6000 RA BKN010
FM271600 30020G30KT 9999 BKN020
TEMPO 2716/2720 30020G40KT -RA BKN010
BECMG 2721/2724 27010KT



MET'MAP, your aeronautical weather chart ! - Copyright ORBIFLY December 2007 - Disclaimer

ORBIFLY MET'MAP TEAM :

Programming & Development : Alexandra Zaïnal
Concept & original design : Baudouin d'Aumeries
Assistance for programming : Marc-Olivier Méhu
Technical & hardware support : Manuel Goepfert

Contact : metmap@orbifly.com




SOURCES & CREDITS :

   NOAA